Time;durP1;ratioP1;P1;durP2;ratioP2;P2;SDS_P1;SDS_P2;PMS_P1;PMS_P2;Temp;Humidity;BMP_temperature;BMP_pressure;BME280_temperature;BME280_humidity;BME280_pressure;Samples;Min_cycle;Max_cycle;Signal;HPM_P1;HPM_P2
2022/02/20 00:02:24;;;;;;;6.17;2.15;;;;;;;15.98;29.17;99011.70;1687682;83;21764;-55
2022/02/20 00:04:50;;;;;;;4.12;1.52;;;;;;;16.08;29.23;99019.31;1681079;84;21431;-53
2022/02/20 00:07:17;;;;;;;2.40;1.37;;;;;;;15.85;29.39;99021.53;1674779;83;20970;-54
2022/02/20 00:09:44;;;;;;;4.20;1.67;;;;;;;15.79;29.71;99024.64;1681589;83;21441;-52
2022/02/20 00:12:11;;;;;;;4.47;1.75;;;;;;;15.78;29.53;99034.38;1686821;83;22719;-54
2022/02/20 00:14:38;;;;;;;5.12;1.95;;;;;;;15.89;29.62;99033.10;1678760;84;21419;-54
2022/02/20 00:17:05;;;;;;;5.58;1.12;;;;;;;16.03;29.46;99031.22;1676162;83;21456;-55
2022/02/20 00:19:32;;;;;;;4.45;1.82;;;;;;;15.92;29.62;99037.34;1678067;83;21035;-58
2022/02/20 00:21:59;;;;;;;5.35;1.82;;;;;;;15.57;29.94;99038.94;1676407;84;21436;-54
2022/02/20 00:24:25;;;;;;;2.80;1.57;;;;;;;15.65;29.96;99042.84;1679969;83;22536;-55
2022/02/20 00:26:52;;;;;;;2.92;1.47;;;;;;;15.96;29.59;99039.64;1669347;83;21003;-53
2022/02/20 00:29:19;;;;;;;4.47;1.82;;;;;;;15.70;29.88;99053.95;1691153;82;21134;-54
2022/02/20 00:31:46;;;;;;;3.00;1.10;;;;;;;15.62;29.80;99051.03;1696259;83;21418;-54
2022/02/20 00:34:13;;;;;;;8.90;2.52;;;;;;;15.58;30.01;99041.13;1691061;83;20921;-55
2022/02/20 00:36:40;;;;;;;2.75;1.47;;;;;;;15.79;29.70;99051.98;1684604;82;26039;-52
2022/02/20 00:39:07;;;;;;;4.65;2.05;;;;;;;15.83;29.72;99057.91;1682817;82;20856;-52
2022/02/20 00:41:33;;;;;;;3.83;1.52;;;;;;;15.84;29.71;99064.89;1687449;84;21423;-52
2022/02/20 00:44:02;;;;;;;3.37;2.05;;;;;;;15.72;29.82;99058.66;1686684;82;21450;-52
2022/02/20 00:46:29;;;;;;;6.08;2.02;;;;;;;15.48;30.37;99055.98;1686232;82;21533;-51
2022/02/20 00:48:55;;;;;;;6.47;1.35;;;;;;;15.47;30.43;99064.91;1680784;82;21597;-53
2022/02/20 00:51:23;;;;;;;4.22;1.87;;;;;;;15.55;30.33;99070.48;1688721;83;20990;-51
2022/02/20 00:53:49;;;;;;;4.12;1.55;;;;;;;15.60;30.24;99058.25;1686127;82;21124;-51
2022/02/20 00:56:16;;;;;;;1.82;1.40;;;;;;;15.57;30.30;99066.76;1687024;83;21367;-51
2022/02/20 00:58:45;;;;;;;3.52;1.52;;;;;;;15.59;30.32;99074.60;1680114;84;21388;-52
2022/02/20 01:01:12;;;;;;;4.70;1.50;;;;;;;15.68;30.26;99069.96;1686158;83;22433;-51
2022/02/20 01:03:39;;;;;;;4.57;1.93;;;;;;;15.92;29.99;99077.12;1695190;82;21537;-55
2022/02/20 01:06:06;;;;;;;3.60;1.60;;;;;;;15.88;30.01;99078.27;1677460;82;21387;-52
2022/02/20 01:08:33;;;;;;;5.65;2.30;;;;;;;16.04;29.87;99091.26;1692631;84;21519;-51
2022/02/20 01:11:00;;;;;;;4.87;2.12;;;;;;;15.35;30.72;99086.48;1688537;82;21516;-53
2022/02/20 01:13:27;;;;;;;4.20;1.87;;;;;;;15.48;30.71;99087.33;1683842;82;22548;-53
2022/02/20 01:15:53;;;;;;;3.62;1.67;;;;;;;15.62;30.56;99090.29;1693342;82;21610;-54
2022/02/20 01:18:20;;;;;;;4.67;1.90;;;;;;;15.53;30.79;99096.25;1690187;83;21590;-54
2022/02/20 01:20:47;;;;;;;2.25;1.80;;;;;;;15.76;30.61;99100.78;1686834;82;21416;-52
2022/02/20 01:23:14;;;;;;;3.45;1.80;;;;;;;15.38;30.75;99107.46;1680007;83;21558;-52
2022/02/20 01:25:40;;;;;;;2.98;1.80;;;;;;;15.32;31.18;99108.75;1678672;82;22582;-52
2022/02/20 01:28:07;;;;;;;2.60;1.90;;;;;;;15.55;30.87;99105.77;1684367;82;21421;-52
2022/02/20 01:30:34;;;;;;;3.72;1.57;;;;;;;15.50;30.94;99111.03;1693767;83;21424;-54
2022/02/20 01:33:01;;;;;;;3.47;1.80;;;;;;;15.07;31.55;99111.41;1689225;83;20933;-51
2022/02/20 01:35:28;;;;;;;4.40;1.77;;;;;;;15.16;31.13;99124.02;1690570;82;21574;-52
2022/02/20 01:37:54;;;;;;;5.53;2.20;;;;;;;15.22;31.47;99125.38;1683709;82;22484;-53
2022/02/20 01:40:27;;;;;;;3.80;2.00;;;;;;;15.62;30.92;99130.03;1684010;82;22003;-52
2022/02/20 01:42:52;;;;;;;4.65;1.62;;;;;;;15.65;30.90;99125.86;1682553;84;21036;-53
2022/02/20 01:45:19;;;;;;;6.87;1.87;;;;;;;15.72;30.76;99131.54;1693572;82;21507;-54
2022/02/20 01:47:46;;;;;;;4.05;1.95;;;;;;;15.53;31.02;99131.53;1683028;82;21476;-52
2022/02/20 01:50:15;;;;;;;3.60;1.65;;;;;;;15.43;30.96;99127.02;1682444;84;22784;-52
2022/02/20 01:52:45;;;;;;;3.92;1.90;;;;;;;15.42;31.05;99135.42;1689479;83;21372;-51
2022/02/20 01:55:13;;;;;;;4.50;2.47;;;;;;;15.83;30.60;99132.13;1692176;82;21398;-53
2022/02/20 01:57:47;;;;;;;5.22;2.10;;;;;;;15.96;30.48;99138.23;1688652;83;20885;-51
2022/02/20 02:00:17;;;;;;;5.53;1.70;;;;;;;15.31;30.92;99141.95;1728485;80;21451;-51
2022/02/20 02:02:46;;;;;;;4.45;1.80;;;;;;;15.69;30.99;99140.57;1724359;82;22800;-53
2022/02/20 02:05:32;;;;;;;5.92;2.35;;;;;;;15.81;30.81;99132.72;1727977;80;20918;-54
2022/02/20 02:07:59;;;;;;;4.72;1.87;;;;;;;16.04;30.40;99134.52;1724136;80;21495;-53
2022/02/20 02:10:36;;;;;;;6.22;2.50;;;;;;;16.08;30.34;99135.15;1706130;80;21417;-52
2022/02/20 02:13:22;;;;;;;3.98;1.57;;;;;;;15.97;30.28;99135.92;1732138;80;21558;-52
2022/02/20 02:16:00;;;;;;;3.58;1.75;;;;;;;15.91;30.40;99144.34;1690767;82;22434;-50
2022/02/20 02:18:47;;;;;;;4.78;2.10;;;;;;;15.88;30.34;99144.09;1693059;83;21384;-50
2022/02/20 02:21:29;;;;;;;5.78;1.98;;;;;;;16.23;30.05;99139.80;1725549;80;21534;-52
2022/02/20 02:24:01;;;;;;;4.12;1.60;;;;;;;15.91;30.50;99144.34;1723825;81;21486;-53
2022/02/20 02:26:46;;;;;;;5.10;2.05;;;;;;;15.99;30.45;99141.96;1724093;80;21022;-52
2022/02/20 02:29:27;;;;;;;4.58;2.20;;;;;;;16.23;30.18;99147.76;1704957;81;22489;-51
2022/02/20 02:31:54;;;;;;;4.60;2.00;;;;;;;15.90;30.58;99143.98;1717329;81;21415;-51
2022/02/20 02:34:21;;;;;;;5.08;1.90;;;;;;;15.88;30.71;99147.20;1692399;84;21545;-50
2022/02/20 02:36:53;;;;;;;;;;;;;;;16.25;30.19;99157.77;1723601;80;21456;-55
2022/02/20 02:39:17;;;;;;;3.08;1.85;;;;;;;15.99;30.39;99150.41;1720132;81;20387;-51
2022/02/20 02:41:44;;;;;;;4.05;2.10;;;;;;;15.96;30.29;99156.78;1714919;82;21555;-53
2022/02/20 02:44:11;;;;;;;7.47;2.07;;;;;;;16.09;30.37;99154.09;1693407;84;21574;-51
2022/02/20 02:46:38;;;;;;;4.53;1.90;;;;;;;15.98;30.54;99163.31;1724785;80;21416;-53
2022/02/20 02:49:06;;;;;;;4.00;1.72;;;;;;;15.76;30.69;99162.19;1689078;83;21458;-51
2022/02/20 02:51:33;;;;;;;3.93;1.90;;;;;;;15.93;30.42;99165.79;1689452;84;21362;-52
2022/02/20 02:54:00;;;;;;;3.83;1.85;;;;;;;15.69;30.73;99157.80;1726847;81;22476;-53
2022/02/20 02:56:27;;;;;;;5.92;2.12;;;;;;;15.93;30.54;99159.16;1716992;81;21438;-54
2022/02/20 02:58:54;;;;;;;5.12;1.87;;;;;;;15.81;30.53;99166.70;1723883;80;21423;-54
2022/02/20 03:01:21;;;;;;;3.77;2.02;;;;;;;15.66;30.67;99166.44;1721348;81;21579;-53
2022/02/20 03:03:49;;;;;;;4.30;2.00;;;;;;;15.79;30.76;99172.59;1686932;84;20958;-50
2022/02/20 03:06:17;;;;;;;5.87;2.40;;;;;;;15.42;30.96;99167.21;1724815;81;21403;-51
2022/02/20 03:08:47;;;;;;;5.55;2.70;;;;;;;15.74;30.77;99166.27;1733797;80;21728;-53
2022/02/20 03:11:14;;;;;;;7.85;2.30;;;;;;;15.76;30.87;99171.47;1721733;81;21487;-51
2022/02/20 03:13:41;;;;;;;3.62;2.33;;;;;;;15.80;30.85;99175.59;1724188;81;21332;-51
2022/02/20 03:16:13;;;;;;;3.98;2.10;;;;;;;15.69;30.92;99168.39;1712823;81;21340;-52
2022/02/20 03:18:43;;;;;;;5.95;2.33;;;;;;;15.63;31.01;99165.33;1717436;82;22449;-54
2022/02/20 03:21:11;;;;;;;6.15;2.30;;;;;;;15.63;30.98;99174.11;1693678;83;21421;-53
2022/02/20 03:23:38;;;;;;;5.90;2.37;;;;;;;15.50;31.19;99178.13;1688497;83;21362;-53
2022/02/20 03:26:05;;;;;;;5.80;2.20;;;;;;;15.37;31.42;99169.36;1695389;83;21651;-54
2022/02/20 03:28:33;;;;;;;7.05;2.37;;;;;;;15.34;31.42;99174.38;1739605;80;21485;-53
2022/02/20 03:31:02;;;;;;;5.10;2.30;;;;;;;15.41;31.34;99178.78;1731567;80;22498;-53
2022/02/20 03:35:17;;;;;;;5.92;2.47;;;;;;;12.65;37.14;99198.14;1781340;78;22582;-55
2022/02/20 03:37:44;;;;;;;5.62;2.52;;;;;;;15.13;31.95;99195.25;1726462;81;21472;-56
2022/02/20 03:40:12;;;;;;;8.43;2.50;;;;;;;15.25;31.68;99198.01;1736270;80;22443;-54
2022/02/20 03:42:39;;;;;;;6.15;2.37;;;;;;;15.23;31.59;99207.86;1737108;80;21418;-52
2022/02/20 03:45:08;;;;;;;4.45;2.30;;;;;;;15.21;31.72;99213.74;1741748;81;21604;-56
2022/02/20 03:47:37;;;;;;;4.67;2.40;;;;;;;15.14;31.87;99211.53;1733364;80;21529;-56
2022/02/20 03:50:05;;;;;;;7.97;3.02;;;;;;;15.40;31.55;99208.02;1697733;83;21493;-56
2022/02/20 03:52:36;;;;;;;6.87;2.70;;;;;;;15.24;31.68;99215.70;1677948;83;21586;-55
2022/02/20 03:55:06;;;;;;;4.85;2.20;;;;;;;15.09;31.79;99214.95;1699279;83;21651;-56
2022/02/20 03:57:37;;;;;;;6.50;2.80;;;;;;;15.38;31.53;99210.77;1682029;83;21684;-55
2022/02/20 04:00:19;;;;;;;3.70;1.98;;;;;;;15.12;32.06;99211.23;1689572;83;21420;-53
2022/02/20 04:02:50;;;;;;;4.87;2.08;;;;;;;15.07;32.04;99208.05;1698454;82;21498;-55
2022/02/20 04:05:18;;;;;;;4.37;2.20;;;;;;;15.10;31.99;99223.73;1692198;82;22522;-56
2022/02/20 04:07:45;;;;;;;6.40;2.20;;;;;;;15.16;31.97;99224.18;1663713;84;21496;-54
2022/02/20 04:10:13;;;;;;;6.83;2.45;;;;;;;15.33;31.77;99224.34;1699953;82;21374;-54
2022/02/20 04:12:40;;;;;;;5.05;2.58;;;;;;;15.66;31.45;99212.81;1696475;82;21557;-55
2022/02/20 04:15:15;;;;;;;5.45;2.35;;;;;;;15.77;31.20;99220.89;1707818;82;21458;-55
2022/02/20 04:17:41;;;;;;;4.75;2.15;;;;;;;15.04;32.27;99226.33;1693550;83;20985;-52
2022/02/20 04:20:09;;;;;;;3.22;2.00;;;;;;;14.92;32.29;99225.37;1702737;82;21668;-52
2022/02/20 04:22:39;;;;;;;4.55;2.00;;;;;;;14.99;32.30;99227.97;1699049;82;21631;-53
2022/02/20 04:25:08;;;;;;;5.28;2.00;;;;;;;15.19;32.04;99219.98;1696162;83;21547;-51
2022/02/20 04:27:35;;;;;;;3.90;1.98;;;;;;;14.91;32.40;99224.98;1695117;82;21415;-51
2022/02/20 04:30:05;;;;;;;4.95;2.60;;;;;;;14.74;32.58;99226.11;1702587;82;22885;-51
2022/02/20 04:32:33;;;;;;;3.87;2.08;;;;;;;15.00;32.36;99230.14;1673281;83;21448;-53
2022/02/20 04:35:01;;;;;;;;;;;;;;;15.01;32.48;99222.55;1702377;82;21018;-52
2022/02/20 04:37:28;;;;;;;;;;;;;;;14.89;32.65;99228.69;1691729;82;20718;-53
2022/02/20 04:39:55;;;;;;;2.72;1.72;;;;;;;14.94;32.60;99232.72;1692597;82;20239;-52
2022/02/20 04:42:22;;;;;;;5.80;2.60;;;;;;;14.95;32.24;99238.37;1680424;82;22495;-52
2022/02/20 04:44:57;;;;;;;4.33;2.27;;;;;;;14.91;32.70;99240.02;1682939;82;21050;-53
2022/02/20 04:47:25;;;;;;;6.75;2.20;;;;;;;14.87;32.54;99230.11;1683986;82;21494;-52
2022/02/20 04:49:53;;;;;;;4.60;2.00;;;;;;;14.95;32.48;99233.08;1694229;82;21518;-51
2022/02/20 04:52:22;;;;;;;4.72;2.12;;;;;;;14.56;33.09;99237.42;1679508;82;21126;-54
2022/02/20 04:55:07;;;;;;;4.25;2.00;;;;;;;14.96;32.55;99248.51;1697677;82;22518;-52
2022/02/20 04:57:37;;;;;;;5.67;2.20;;;;;;;14.66;33.02;99244.30;1694646;82;21368;-53
2022/02/20 05:00:07;;;;;;;4.25;1.90;;;;;;;14.86;32.86;99251.38;1696237;82;21562;-55
2022/02/20 05:02:35;;;;;;;5.20;2.05;;;;;;;14.73;32.98;99252.66;1675902;82;20930;-54
2022/02/20 05:05:04;;;;;;;5.47;2.33;;;;;;;14.72;33.10;99259.77;1695561;82;21096;-54
2022/02/20 05:07:30;;;;;;;6.45;2.55;;;;;;;14.71;33.03;99254.56;1692732;82;22476;-54
2022/02/20 05:09:58;;;;;;;5.30;3.27;;;;;;;14.47;33.63;99262.31;1693178;82;21430;-52
2022/02/20 05:12:25;;;;;;;5.27;2.80;;;;;;;14.44;33.67;99267.30;1685032;82;21026;-53
2022/02/20 05:14:54;;;;;;;5.67;2.65;;;;;;;14.53;33.52;99260.58;1690712;82;21459;-53
2022/02/20 05:17:25;;;;;;;4.62;2.87;;;;;;;14.17;33.91;99270.77;1687058;83;21545;-52
2022/02/20 05:19:54;;;;;;;3.75;2.17;;;;;;;14.21;33.87;99274.08;1693560;82;22520;-50
2022/02/20 05:22:21;;;;;;;7.90;2.67;;;;;;;14.25;34.20;99280.02;1695332;82;21802;-51
2022/02/20 05:24:52;;;;;;;5.12;2.47;;;;;;;14.53;33.78;99278.61;1682200;82;21412;-52
2022/02/20 05:27:18;;;;;;;3.70;2.02;;;;;;;14.52;33.87;99280.03;1687931;82;21453;-53
2022/02/20 05:29:46;;;;;;;5.12;2.30;;;;;;;14.56;33.68;99286.36;1694229;82;21545;-52
2022/02/20 05:32:23;;;;;;;5.75;2.37;;;;;;;14.47;33.96;99287.44;1698693;82;22472;-52
2022/02/20 05:34:59;;;;;;;3.77;2.10;;;;;;;14.57;33.82;99284.11;1695842;82;21466;-51
2022/02/20 05:37:28;;;;;;;5.65;2.37;;;;;;;14.40;34.03;99293.09;1690542;82;21542;-52
2022/02/20 05:39:55;;;;;;;4.90;1.90;;;;;;;14.64;33.67;99287.70;1700709;82;21009;-52
2022/02/20 05:42:22;;;;;;;4.97;2.70;;;;;;;14.66;33.65;99283.16;1701467;82;21599;-51
2022/02/20 05:44:54;;;;;;;5.60;2.40;;;;;;;14.81;33.48;99291.40;1692120;82;22496;-52
2022/02/20 05:47:20;;;;;;;4.53;1.70;;;;;;;14.79;33.35;99295.47;1694090;83;21502;-51
2022/02/20 05:49:48;;;;;;;5.70;2.40;;;;;;;14.62;33.79;99302.34;1696688;82;21544;-49
2022/02/20 05:52:15;;;;;;;3.77;2.00;;;;;;;14.53;33.91;99299.77;1684846;83;21459;-51
2022/02/20 05:54:44;;;;;;;7.62;2.35;;;;;;;14.40;34.10;99305.00;1680620;83;20958;-51
2022/02/20 05:57:11;;;;;;;5.53;2.63;;;;;;;14.83;33.84;99304.54;1678182;83;22816;-52
2022/02/20 05:59:39;;;;;;;7.50;3.00;;;;;;;14.68;33.79;99304.58;1701907;82;20922;-52
2022/02/20 06:02:07;;;;;;;5.25;2.83;;;;;;;14.65;33.93;99299.48;1698438;82;21532;-50
2022/02/20 06:04:34;;;;;;;8.38;2.75;;;;;;;14.58;34.08;99304.82;1696301;83;21411;-51
2022/02/20 06:07:14;;;;;;;3.80;2.12;;;;;;;14.56;34.14;99311.95;1723400;81;21470;-51
2022/02/20 06:09:43;;;;;;;4.62;2.45;;;;;;;14.71;33.89;99316.30;1737947;80;22498;-50
2022/02/20 06:12:23;;;;;;;7.50;2.12;;;;;;;14.86;33.76;99322.39;1732198;80;21637;-51
2022/02/20 06:15:04;;;;;;;6.67;2.85;;;;;;;14.81;33.66;99329.78;1720729;80;21637;-50
2022/02/20 06:17:43;;;;;;;5.60;2.55;;;;;;;14.91;33.69;99327.37;1665574;83;21537;-52
2022/02/20 06:20:30;;;;;;;3.72;2.42;;;;;;;15.06;33.54;99329.48;1728743;82;21363;-51
2022/02/20 06:23:10;;;;;;;5.37;2.77;;;;;;;14.99;33.62;99336.97;1689593;81;22822;-52
2022/02/20 06:25:48;;;;;;;3.75;2.42;;;;;;;15.18;33.25;99331.30;1687139;82;21036;-53
2022/02/20 06:28:16;;;;;;;7.80;3.58;;;;;;;15.02;33.51;99335.94;1733894;80;21025;-51
2022/02/20 06:30:43;;;;;;;6.78;2.70;;;;;;;14.97;33.64;99332.25;1693991;83;21509;-52
2022/02/20 06:33:11;;;;;;;9.68;2.95;;;;;;;15.10;33.49;99337.11;1693216;83;20954;-52
2022/02/20 06:35:39;;;;;;;6.72;2.42;;;;;;;15.04;33.51;99339.33;1730961;80;22841;-51
2022/02/20 06:38:08;;;;;;;4.00;2.83;;;;;;;15.02;33.67;99339.42;1687635;82;20980;-52
2022/02/20 06:40:36;;;;;;;8.93;2.92;;;;;;;15.14;33.15;99345.70;1691605;81;21521;-51
2022/02/20 06:43:04;;;;;;;;;;;;;;;15.39;33.05;99347.58;1727868;80;21471;-50
2022/02/20 06:45:32;;;;;;;7.47;2.42;;;;;;;15.33;33.16;99351.48;1729518;80;20745;-53
2022/02/20 06:48:00;;;;;;;6.67;2.57;;;;;;;15.27;33.21;99357.66;1736693;80;21455;-51
2022/02/20 06:50:46;;;;;;;7.72;2.95;;;;;;;15.45;33.08;99361.72;1725419;80;22154;-51
2022/02/20 06:53:15;;;;;;;4.45;2.90;;;;;;;15.45;32.96;99367.51;1727120;80;21513;-51
2022/02/20 06:56:02;;;;;;;5.03;2.65;;;;;;;15.37;33.25;99368.86;1727761;80;21459;-51
2022/02/20 06:58:30;;;;;;;7.97;2.62;;;;;;;15.22;33.37;99366.38;1729580;80;20858;-52
2022/02/20 07:00:57;;;;;;;6.83;3.70;;;;;;;15.71;32.85;99377.67;1726550;80;22478;-51
2022/02/20 07:03:25;;;;;;;5.62;2.72;;;;;;;15.84;32.73;99381.66;1724841;80;22057;-52
2022/02/20 07:05:52;;;;;;;3.47;2.20;;;;;;;15.99;32.53;99380.59;1715276;82;21483;-52
2022/02/20 07:08:19;;;;;;;5.90;2.80;;;;;;;15.84;32.53;99378.55;1726512;80;21426;-52
2022/02/20 07:10:46;;;;;;;5.67;2.80;;;;;;;16.00;32.47;99369.53;1725694;81;21491;-52
2022/02/20 07:13:15;;;;;;;4.25;2.80;;;;;;;16.30;32.22;99376.66;1674290;84;22584;-51
2022/02/20 07:15:42;;;;;;;5.83;3.22;;;;;;;16.50;31.81;99388.97;1722907;82;21898;-52
2022/02/20 07:18:11;;;;;;;4.25;2.22;;;;;;;16.99;31.31;99376.64;1728359;81;20949;-52
2022/02/20 07:20:38;;;;;;;6.60;2.60;;;;;;;17.57;30.98;99372.76;1721407;81;21033;-52
2022/02/20 07:23:05;;;;;;;4.87;2.67;;;;;;;17.91;30.92;99375.03;1675055;84;21679;-53
2022/02/20 07:25:33;;;;;;;7.87;2.62;;;;;;;18.20;30.33;99370.11;1729081;81;22774;-52
2022/02/20 07:28:00;;;;;;;4.20;2.12;;;;;;;18.44;30.53;99365.98;1692374;83;21581;-52
2022/02/20 07:30:28;;;;;;;4.67;2.37;;;;;;;18.72;30.67;99360.23;1684576;84;21536;-52
2022/02/20 07:32:57;;;;;;;6.28;2.55;;;;;;;18.55;29.85;99358.94;1719939;81;21443;-52
2022/02/20 07:35:23;;;;;;;;;;;;;;;18.70;29.63;99360.85;1727604;81;21486;-54
2022/02/20 07:37:51;;;;;;;6.10;2.67;;;;;;;18.60;29.31;99372.73;1737086;80;22526;-53
2022/02/20 07:40:18;;;;;;;3.77;2.40;;;;;;;18.62;29.51;99363.64;1731615;80;21445;-52
2022/02/20 07:42:45;;;;;;;4.58;2.70;;;;;;;18.51;28.93;99366.32;1734640;80;21740;-53
2022/02/20 07:45:12;;;;;;;4.17;2.27;;;;;;;18.83;28.94;99361.08;1696665;82;21541;-52
2022/02/20 07:47:59;;;;;;;5.03;2.50;;;;;;;19.02;28.02;99347.13;1699613;82;21386;-55
2022/02/20 07:50:31;;;;;;;5.90;2.40;;;;;;;19.75;27.61;99352.58;1704109;83;22811;-54
2022/02/20 07:52:59;;;;;;;3.58;2.55;;;;;;;20.31;26.96;99356.64;1705382;82;21579;-52
2022/02/20 07:55:27;;;;;;;5.80;3.02;;;;;;;19.98;26.90;99349.75;1704908;82;21549;-53
2022/02/20 07:57:55;;;;;;;5.80;2.42;;;;;;;19.79;27.50;99358.00;1696381;81;21033;-54
2022/02/20 08:00:26;;;;;;;4.87;2.35;;;;;;;20.13;27.03;99349.75;1701095;82;21015;-53
2022/02/20 08:02:52;;;;;;;4.78;2.40;;;;;;;21.06;26.34;99342.89;1697956;82;22580;-55
2022/02/20 08:05:19;;;;;;;3.90;2.33;;;;;;;21.49;25.75;99348.33;1703421;82;21462;-52
2022/02/20 08:07:46;;;;;;;4.00;2.37;;;;;;;21.34;25.79;99351.90;1710934;81;21472;-53
2022/02/20 08:10:13;;;;;;;5.70;2.97;;;;;;;21.85;25.57;99348.06;1706503;82;21545;-51
2022/02/20 08:12:42;;;;;;;5.45;2.45;;;;;;;21.98;25.03;99343.70;1693069;83;21384;-52
2022/02/20 08:15:09;;;;;;;4.00;2.58;;;;;;;22.00;25.02;99343.56;1707523;82;21858;-53
2022/02/20 08:17:45;;;;;;;8.78;4.00;;;;;;;22.16;24.65;99343.80;1707096;82;20865;-52
2022/02/20 08:20:13;;;;;;;4.90;3.33;;;;;;;22.81;24.72;99363.87;1698455;82;20918;-54
2022/02/20 08:22:40;;;;;;;;;;;;;;;23.02;24.64;99355.53;1703345;82;20897;-54
2022/02/20 08:25:08;;;;;;;4.62;2.72;;;;;;;22.88;24.25;99355.54;1678033;83;20384;-53
2022/02/20 08:27:36;;;;;;;;;;;;;;;22.83;24.27;99351.63;1680105;84;22516;-54
2022/02/20 08:30:08;;;;;;;6.17;2.75;;;;;;;22.80;24.45;99352.78;1701416;82;20754;-54
2022/02/20 08:32:35;;;;;;;4.90;2.75;;;;;;;22.66;24.55;99343.44;1706057;82;21484;-55
2022/02/20 08:35:08;;;;;;;4.30;2.75;;;;;;;22.84;24.67;99344.78;1706999;83;21517;-54
2022/02/20 08:37:36;;;;;;;3.70;2.30;;;;;;;22.85;24.39;99350.98;1720738;82;21592;-53
2022/02/20 08:40:04;;;;;;;7.17;2.90;;;;;;;22.46;24.45;99352.06;1714670;80;22446;-54
2022/02/20 08:42:32;;;;;;;5.78;2.75;;;;;;;22.82;24.74;99346.77;1727246;80;21463;-54
2022/02/20 08:44:59;;;;;;;4.05;2.52;;;;;;;22.96;24.56;99343.22;1718135;81;21415;-54
2022/02/20 08:47:26;;;;;;;5.87;2.80;;;;;;;22.83;24.70;99347.61;1725935;80;21425;-55
2022/02/20 08:49:54;;;;;;;7.00;3.35;;;;;;;22.94;24.37;99354.09;1719088;82;21454;-54
2022/02/20 08:52:22;;;;;;;7.03;3.35;;;;;;;23.03;24.31;99350.53;1726076;81;22456;-54
2022/02/20 08:54:50;;;;;;;7.62;2.85;;;;;;;22.94;24.35;99343.37;1716811;81;21467;-53
2022/02/20 08:57:17;;;;;;;4.67;3.25;;;;;;;22.53;24.19;99352.33;1724793;81;21002;-53
2022/02/20 08:59:45;;;;;;;12.13;4.92;;;;;;;22.34;24.46;99344.73;1713391;81;21467;-54
2022/02/20 09:02:13;;;;;;;6.55;3.75;;;;;;;22.18;24.35;99354.36;1719627;81;21483;-52
2022/02/20 09:04:40;;;;;;;6.33;3.70;;;;;;;21.85;24.49;99351.21;1712756;81;22496;-52
2022/02/20 09:07:07;;;;;;;7.22;3.10;;;;;;;21.88;24.72;99355.78;1721870;81;21601;-53
2022/02/20 09:09:35;;;;;;;5.45;2.62;;;;;;;21.41;24.79;99366.90;1727345;81;21423;-52
2022/02/20 09:12:04;;;;;;;5.67;3.02;;;;;;;21.01;25.14;99366.05;1686449;82;20938;-54
2022/02/20 09:14:31;;;;;;;5.30;3.02;;;;;;;21.09;25.09;99356.83;1696280;83;21501;-52
2022/02/20 09:17:00;;;;;;;4.17;2.90;;;;;;;21.00;24.88;99365.67;1679195;83;22734;-53
2022/02/20 09:19:28;;;;;;;4.58;2.80;;;;;;;20.53;25.23;99369.42;1718478;81;21439;-54
2022/02/20 09:21:56;;;;;;;6.42;3.10;;;;;;;20.49;24.85;99368.01;1718182;80;21511;-51
2022/02/20 09:24:23;;;;;;;8.80;2.77;;;;;;;20.51;25.05;99365.58;1720258;81;21507;-52
2022/02/20 09:26:50;;;;;;;6.77;3.27;;;;;;;20.69;25.32;99368.45;1739253;80;21429;-53
2022/02/20 09:29:19;;;;;;;6.03;3.12;;;;;;;20.27;25.42;99379.72;1733089;80;22167;-54
2022/02/20 09:31:46;;;;;;;4.62;3.33;;;;;;;20.60;25.25;99388.80;1722083;80;20921;-52
2022/02/20 09:34:13;;;;;;;5.70;3.45;;;;;;;20.47;25.35;99388.66;1730058;81;21435;-53
2022/02/20 09:36:41;;;;;;;11.18;3.50;;;;;;;20.37;25.67;99387.30;1693252;81;21510;-51
2022/02/20 09:39:08;;;;;;;4.92;3.05;;;;;;;19.92;25.73;99391.64;1678890;83;21649;-51
2022/02/20 09:41:36;;;;;;;6.00;3.02;;;;;;;20.16;25.84;99382.85;1675671;83;22444;-53
2022/02/20 09:44:03;;;;;;;8.23;3.37;;;;;;;20.56;25.32;99386.02;1679174;83;21437;-54
2022/02/20 09:46:31;;;;;;;5.33;2.90;;;;;;;20.55;25.44;99377.67;1672369;84;21493;-53
2022/02/20 09:48:58;;;;;;;8.83;3.50;;;;;;;20.08;25.74;99385.35;1681698;83;21422;-53
2022/02/20 09:51:27;;;;;;;10.80;3.65;;;;;;;19.59;26.28;99378.82;1680098;83;21500;-54
2022/02/20 09:53:54;;;;;;;5.90;3.02;;;;;;;20.48;25.54;99374.34;1627816;86;22712;-52
2022/02/20 09:56:21;;;;;;;5.20;2.77;;;;;;;20.67;25.21;99365.08;1663246;83;21520;-53
2022/02/20 09:58:49;;;;;;;4.72;2.58;;;;;;;20.84;25.13;99358.72;1660872;83;21374;-55
2022/02/20 10:01:17;;;;;;;5.72;2.70;;;;;;;20.55;25.07;99358.98;1669540;83;21103;-54
2022/02/20 10:03:46;;;;;;;5.15;2.72;;;;;;;20.55;24.95;99358.98;1674580;83;21429;-53
2022/02/20 10:06:20;;;;;;;4.80;3.10;;;;;;;20.51;25.04;99357.56;1683680;83;22478;-52
2022/02/20 10:08:53;;;;;;;5.90;3.05;;;;;;;20.50;25.17;99345.18;1671619;84;21602;-52
2022/02/20 10:11:26;;;;;;;7.00;2.80;;;;;;;20.61;24.86;99343.77;1678655;84;21448;-52
2022/02/20 10:13:56;;;;;;;7.33;3.17;;;;;;;20.51;24.83;99348.69;1670898;83;21501;-51
2022/02/20 10:16:28;;;;;;;6.03;3.00;;;;;;;20.37;24.84;99349.92;1678453;83;21003;-51
2022/02/20 10:19:02;;;;;;;9.10;3.37;;;;;;;20.30;24.96;99343.42;1674893;83;22370;-53
2022/02/20 10:21:47;;;;;;;8.83;3.02;;;;;;;20.38;24.87;99338.25;1681222;83;21425;-51
2022/02/20 10:24:27;;;;;;;9.23;3.00;;;;;;;20.04;24.71;99341.20;1679536;83;21449;-52
2022/02/20 10:27:12;;;;;;;4.58;2.67;;;;;;;20.47;24.57;99328.58;1682119;83;21094;-52
2022/02/20 10:30:28;;;;;;;6.08;2.40;;;;;;;20.07;25.12;99330.28;1679470;83;21619;-52
2022/02/20 10:33:12;;;;;;;5.20;2.50;;;;;;;20.11;24.99;99330.86;1677748;83;22563;-51
2022/02/20 10:35:45;;;;;;;5.50;2.92;;;;;;;19.98;24.94;99325.24;1676953;81;21544;-52
2022/02/20 10:38:15;;;;;;;5.25;2.90;;;;;;;19.99;25.18;99323.44;1738255;80;21442;-55
2022/02/20 10:40:48;;;;;;;6.83;3.27;;;;;;;20.02;25.40;99317.81;1735080;81;21580;-53
2022/02/20 10:43:33;;;;;;;6.62;2.77;;;;;;;20.31;25.14;99313.94;1703651;82;21000;-53
2022/02/20 10:46:20;;;;;;;8.13;3.00;;;;;;;20.39;25.18;99311.91;1702535;82;22414;-52
2022/02/20 10:48:52;;;;;;;4.85;2.83;;;;;;;20.43;25.05;99307.98;1706101;82;21501;-54
2022/02/20 10:51:20;;;;;;;6.25;1.98;;;;;;;21.07;24.59;99301.83;1709332;82;21042;-54
2022/02/20 10:53:51;;;;;;;;;;;;;;;20.93;24.15;99288.41;1703297;82;21482;-52
2022/02/20 10:56:18;;;;;;;9.35;2.67;;;;;;;20.73;23.95;99302.23;1680199;83;20398;-52
2022/02/20 10:58:51;;;;;;;6.65;2.25;;;;;;;21.30;23.91;99301.88;1694941;82;22464;-52
2022/02/20 11:01:21;;;;;;;7.10;2.67;;;;;;;21.18;23.40;99293.67;1687405;84;21061;-53
2022/02/20 11:03:49;;;;;;;6.53;2.62;;;;;;;21.31;24.06;99288.03;1704957;82;21425;-54
2022/02/20 11:06:17;;;;;;;4.67;2.72;;;;;;;21.36;23.96;99276.39;1700789;82;21640;-52
2022/02/20 11:08:46;;;;;;;4.62;2.12;;;;;;;21.53;23.51;99274.37;1696407;82;21586;-51
2022/02/20 11:11:56;;;;;;;5.72;2.80;;;;;;;21.28;23.17;99266.41;1696701;83;22700;-53
2022/02/20 11:13:45;;;;;;;5.72;2.98;;;;;;;20.60;23.93;99275.30;1698996;83;21525;-51
2022/02/20 11:16:12;;;;;;;5.92;2.75;;;;;;;20.99;23.57;99268.64;1702124;83;21402;-53
2022/02/20 11:18:41;;;;;;;3.83;2.33;;;;;;;21.02;23.92;99270.20;1703910;82;21409;-51
2022/02/20 11:21:08;;;;;;;7.35;2.67;;;;;;;20.65;23.99;99265.55;1689432;82;21455;-51
2022/02/20 11:23:35;;;;;;;6.35;2.65;;;;;;;20.94;23.76;99256.69;1695602;82;22578;-53
2022/02/20 11:26:02;;;;;;;5.67;2.85;;;;;;;20.94;23.59;99258.85;1699528;82;21385;-51
2022/02/20 11:28:29;;;;;;;6.23;2.33;;;;;;;20.79;23.83;99252.25;1700363;83;21561;-53
2022/02/20 11:30:57;;;;;;;3.67;2.22;;;;;;;21.04;23.87;99253.53;1702134;83;22652;-53
2022/02/20 11:33:24;;;;;;;4.50;2.83;;;;;;;21.06;23.53;99246.68;1698150;83;21695;-52
2022/02/20 11:35:52;;;;;;;6.20;3.02;;;;;;;20.95;23.78;99237.84;1669956;84;22534;-53
2022/02/20 11:38:21;;;;;;;5.67;2.80;;;;;;;21.18;23.80;99238.87;1739692;80;21493;-53
2022/02/20 11:40:58;;;;;;;5.30;2.77;;;;;;;21.16;23.94;99239.00;1725397;82;21612;-50
2022/02/20 11:43:45;;;;;;;5.33;2.92;;;;;;;21.03;24.01;99241.64;1695731;82;21527;-53
2022/02/20 11:46:20;;;;;;;4.47;2.87;;;;;;;21.23;23.70;99232.61;1696613;82;21381;-53
2022/02/20 11:49:16;;;;;;;6.62;2.58;;;;;;;21.37;23.59;99222.77;1731844;80;21529;-53